Pagina principale
METAR-TAF:

METAR-TAF

Aeroporti :

Aeroporto di Milano-Malpensa

Milano, Italia

latitudine: 45-37N, longitudine: 008-44E, altezza: 234 m

Osservazione

Il bollettino è stato emesso 16 minuti fa, alle 15:50 UTC
Vento 8 kt da sud-ovest, variando fra sud e ovest/sud-ovest
Temperature 29°C
Umidità 33%
Pressione 1012 hPa
Visibilità 10 km o più
nessuna nube inferiore a 1500 m e nessun cumulonembo

METAR: LIMC 131550Z 22008KT 170V250 CAVOK 29/11 Q1012 NOSIG

Ora: 18:06 (16:06 UTC)

Previsione

Il bollettino è stato emesso 5 ore e 6 minuti fa, alle 11:00 UTC
Previsione valida dal 13 alle 12 UTC al 14 alle 18 UTC
Vento 6 kt da direzioni variabili
Visibilità 10 km o più
nessuna nube inferiore a 1500 m e nessun cumulonembo
Evoluzione graduale
dal 14 alle 10 UTC al 14 alle 12 UTC
Vento 10 kt da sud/sud-ovest

TAF: LIMC 131100Z 1312/1418 VRB06KT CAVOK BECMG 1410/1412 20010KT

Osservazioni e previsioni meteorologiche di più di 4000 aeroporti (messaggi METAR e TAF).

Le stazioni disponibili sono rappresentate dai dischi gialli e rossi sulla carta.

Puntare il mouse per vedere il nome della stazione.

Clicca sopra per visualizzare le osservazioni e previsioni meteorologiche.

Per cambiare la mappa : fare clic sui pulsanti verdi con una croce nera per ingrandire, il pulsante verde con un trattino per diminuire, o sulla freccia verde per le mappe adiacenti.


METAR-TAF: